sensor_id;sensor_type;location;lat;lon;timestamp;pressure;altitude;pressure_sealevel;temperature;humidity
49979;BME280;35869;50.990;6.962;2023-03-03T00:02:11;101917.22;;;3.02;78.87
49979;BME280;35869;50.990;6.962;2023-03-03T00:07:11;101923.16;;;2.98;79.15
49979;BME280;35869;50.990;6.962;2023-03-03T00:12:27;101926.50;;;2.86;79.21
49979;BME280;35869;50.990;6.962;2023-03-03T00:17:29;101923.09;;;2.87;79.62
49979;BME280;35869;50.990;6.962;2023-03-03T00:22:34;101923.09;;;2.87;78.98
49979;BME280;35869;50.990;6.962;2023-03-03T00:27:35;101930.75;;;2.81;79.36
49979;BME280;35869;50.990;6.962;2023-03-03T00:32:45;101930.69;;;2.72;79.23
49979;BME280;35869;50.990;6.962;2023-03-03T00:37:45;101938.34;;;2.65;80.75
49979;BME280;35869;50.990;6.962;2023-03-03T00:42:48;101936.63;;;2.64;80.52
49979;BME280;35869;50.990;6.962;2023-03-03T00:47:49;101942.53;;;2.57;80.30
49979;BME280;35869;50.990;6.962;2023-03-03T00:57:57;101951.00;;;2.44;80.38
49979;BME280;35869;50.990;6.962;2023-03-03T01:03:02;101945.00;;;2.44;80.07
49979;BME280;35869;50.990;6.962;2023-03-03T01:08:03;101946.59;;;2.31;80.90
49979;BME280;35869;50.990;6.962;2023-03-03T01:13:04;101951.56;;;2.12;81.71
49979;BME280;35869;50.990;6.962;2023-03-03T01:18:06;101956.69;;;2.12;80.84
49979;BME280;35869;50.990;6.962;2023-03-03T01:23:06;101954.19;;;2.17;81.11
49979;BME280;35869;50.990;6.962;2023-03-03T01:28:07;101959.28;;;2.16;81.32
49979;BME280;35869;50.990;6.962;2023-03-03T01:33:07;101954.09;;;2.11;81.87
49979;BME280;35869;50.990;6.962;2023-03-03T01:38:07;101958.28;;;2.00;82.19
49979;BME280;35869;50.990;6.962;2023-03-03T01:43:07;101963.34;;;1.95;80.61
49979;BME280;35869;50.990;6.962;2023-03-03T01:48:13;101961.59;;;1.93;81.64
49979;BME280;35869;50.990;6.962;2023-03-03T01:54:00;101954.63;;;1.81;82.22
49979;BME280;35869;50.990;6.962;2023-03-03T01:58:46;101956.25;;;1.73;82.46
49979;BME280;35869;50.990;6.962;2023-03-03T02:03:49;101957.16;;;1.78;82.72
49979;BME280;35869;50.990;6.962;2023-03-03T02:14:10;101976.53;;;1.57;83.95
49979;BME280;35869;50.990;6.962;2023-03-03T02:19:17;101971.41;;;1.54;83.76
49979;BME280;35869;50.990;6.962;2023-03-03T02:24:26;101973.09;;;1.55;83.26
49979;BME280;35869;50.990;6.962;2023-03-03T02:29:27;101974.88;;;1.59;83.23
49979;BME280;35869;50.990;6.962;2023-03-03T02:34:28;101972.91;;;1.40;83.13
49979;BME280;35869;50.990;6.962;2023-03-03T02:39:28;101975.38;;;1.34;83.64
49979;BME280;35869;50.990;6.962;2023-03-03T02:44:30;101974.72;;;1.47;82.22
49979;BME280;35869;50.990;6.962;2023-03-03T02:49:33;101983.13;;;1.40;82.01
49979;BME280;35869;50.990;6.962;2023-03-03T02:54:34;101985.69;;;1.40;82.46
49979;BME280;35869;50.990;6.962;2023-03-03T02:59:34;101996.69;;;1.30;82.80
49979;BME280;35869;50.990;6.962;2023-03-03T03:04:34;101986.47;;;1.33;84.95
49979;BME280;35869;50.990;6.962;2023-03-03T03:09:34;101987.84;;;1.11;85.11
49979;BME280;35869;50.990;6.962;2023-03-03T03:14:35;101989.69;;;1.20;85.26
49979;BME280;35869;50.990;6.962;2023-03-03T03:19:35;101988.84;;;1.21;85.26
49979;BME280;35869;50.990;6.962;2023-03-03T03:24:35;101985.53;;;1.28;84.29
49979;BME280;35869;50.990;6.962;2023-03-03T03:29:35;101983.81;;;1.27;84.89
49979;BME280;35869;50.990;6.962;2023-03-03T03:34:35;101989.81;;;1.29;82.99
49979;BME280;35869;50.990;6.962;2023-03-03T03:39:36;102003.34;;;1.19;84.22
49979;BME280;35869;50.990;6.962;2023-03-03T03:44:36;102015.16;;;1.11;86.25
49979;BME280;35869;50.990;6.962;2023-03-03T03:49:36;102006.78;;;1.21;85.17
49979;BME280;35869;50.990;6.962;2023-03-03T03:54:36;102005.09;;;1.23;84.97
49979;BME280;35869;50.990;6.962;2023-03-03T03:59:37;101999.75;;;1.08;84.82
49979;BME280;35869;50.990;6.962;2023-03-03T04:04:37;102001.56;;;1.15;84.51
49979;BME280;35869;50.990;6.962;2023-03-03T04:09:37;102007.63;;;1.20;83.71
49979;BME280;35869;50.990;6.962;2023-03-03T04:14:37;102011.97;;;1.24;84.63
49979;BME280;35869;50.990;6.962;2023-03-03T04:19:38;102010.19;;;1.20;84.96
49979;BME280;35869;50.990;6.962;2023-03-03T04:24:39;102017.88;;;1.20;85.49
49979;BME280;35869;50.990;6.962;2023-03-03T04:29:39;102027.19;;;1.16;85.25
49979;BME280;35869;50.990;6.962;2023-03-03T04:34:39;102026.38;;;1.19;85.16
49979;BME280;35869;50.990;6.962;2023-03-03T04:39:39;102027.16;;;1.15;84.57
49979;BME280;35869;50.990;6.962;2023-03-03T04:44:40;102028.03;;;1.17;84.20
49979;BME280;35869;50.990;6.962;2023-03-03T04:49:40;102035.25;;;0.88;86.33
49979;BME280;35869;50.990;6.962;2023-03-03T04:54:40;102030.41;;;1.04;84.90
49979;BME280;35869;50.990;6.962;2023-03-03T04:59:40;102036.41;;;1.05;85.45
49979;BME280;35869;50.990;6.962;2023-03-03T05:04:40;102039.88;;;1.07;85.97
49979;BME280;35869;50.990;6.962;2023-03-03T05:09:41;102036.44;;;1.06;85.73
49979;BME280;35869;50.990;6.962;2023-03-03T05:14:41;102044.31;;;1.19;84.65
49979;BME280;35869;50.990;6.962;2023-03-03T05:19:41;102051.00;;;1.11;85.28
49979;BME280;35869;50.990;6.962;2023-03-03T05:24:41;102058.78;;;1.17;86.69
49979;BME280;35869;50.990;6.962;2023-03-03T05:29:42;102056.38;;;1.26;84.05
49979;BME280;35869;50.990;6.962;2023-03-03T05:34:42;102064.06;;;1.26;84.53
49979;BME280;35869;50.990;6.962;2023-03-03T05:39:42;102068.25;;;1.22;85.93
49979;BME280;35869;50.990;6.962;2023-03-03T05:44:42;102057.78;;;1.07;86.11
49979;BME280;35869;50.990;6.962;2023-03-03T05:49:43;102067.38;;;1.20;86.53
49979;BME280;35869;50.990;6.962;2023-03-03T05:54:43;102067.31;;;1.17;85.93
49979;BME280;35869;50.990;6.962;2023-03-03T05:59:43;102064.22;;;1.37;84.54
49979;BME280;35869;50.990;6.962;2023-03-03T06:04:43;102069.34;;;1.38;84.34
49979;BME280;35869;50.990;6.962;2023-03-03T06:09:44;102077.81;;;1.32;83.93
49979;BME280;35869;50.990;6.962;2023-03-03T06:14:44;102075.22;;;1.31;84.77
49979;BME280;35869;50.990;6.962;2023-03-03T06:19:44;102075.03;;;1.19;86.64
49979;BME280;35869;50.990;6.962;2023-03-03T06:24:44;102084.81;;;1.43;85.23
49979;BME280;35869;50.990;6.962;2023-03-03T06:29:44;102090.72;;;1.40;83.89
49979;BME280;35869;50.990;6.962;2023-03-03T06:34:45;102090.81;;;1.46;84.20
49979;BME280;35869;50.990;6.962;2023-03-03T06:39:45;102101.78;;;1.36;84.52
49979;BME280;35869;50.990;6.962;2023-03-03T06:44:46;102105.13;;;1.32;84.85
49979;BME280;35869;50.990;6.962;2023-03-03T06:49:46;102123.03;;;1.30;84.76
49979;BME280;35869;50.990;6.962;2023-03-03T06:54:46;102129.00;;;1.29;85.36
49979;BME280;35869;50.990;6.962;2023-03-03T06:59:51;102128.25;;;1.37;84.78
49979;BME280;35869;50.990;6.962;2023-03-03T07:04:54;102140.44;;;1.51;84.00
49979;BME280;35869;50.990;6.962;2023-03-03T07:09:55;102143.75;;;1.46;83.95
49979;BME280;35869;50.990;6.962;2023-03-03T07:15:14;102143.91;;;1.53;85.34
49979;BME280;35869;50.990;6.962;2023-03-03T07:20:22;102142.03;;;1.45;85.26
49979;BME280;35869;50.990;6.962;2023-03-03T07:25:30;102158.16;;;1.38;86.13
49979;BME280;35869;50.990;6.962;2023-03-03T07:30:31;102153.16;;;1.45;86.80
49979;BME280;35869;50.990;6.962;2023-03-03T07:35:36;102159.88;;;1.40;86.07
49979;BME280;35869;50.990;6.962;2023-03-03T07:40:38;102157.59;;;1.55;85.81
49979;BME280;35869;50.990;6.962;2023-03-03T07:45:38;102164.44;;;1.56;86.49
49979;BME280;35869;50.990;6.962;2023-03-03T07:50:39;102172.69;;;1.39;85.74
49979;BME280;35869;50.990;6.962;2023-03-03T07:55:39;102174.78;;;1.63;84.83
49979;BME280;35869;50.990;6.962;2023-03-03T08:01:22;102181.50;;;1.54;85.07
49979;BME280;35869;50.990;6.962;2023-03-03T08:11:30;102188.41;;;1.60;85.26
49979;BME280;35869;50.990;6.962;2023-03-03T08:16:37;102187.72;;;1.70;86.09
49979;BME280;35869;50.990;6.962;2023-03-03T08:21:37;102201.41;;;1.71;85.95
49979;BME280;35869;50.990;6.962;2023-03-03T08:26:37;102198.94;;;1.77;85.95
49979;BME280;35869;50.990;6.962;2023-03-03T08:31:38;102204.16;;;1.83;86.28
49979;BME280;35869;50.990;6.962;2023-03-03T08:36:38;102210.84;;;1.73;86.01
49979;BME280;35869;50.990;6.962;2023-03-03T08:41:38;102221.25;;;1.82;87.07
49979;BME280;35869;50.990;6.962;2023-03-03T08:46:38;102224.75;;;1.89;85.79
49979;BME280;35869;50.990;6.962;2023-03-03T08:51:38;102216.03;;;1.78;86.31
49979;BME280;35869;50.990;6.962;2023-03-03T08:56:39;102223.94;;;1.93;85.48
49979;BME280;35869;50.990;6.962;2023-03-03T09:01:39;102227.50;;;2.01;85.93
49979;BME280;35869;50.990;6.962;2023-03-03T09:06:39;102228.28;;;1.97;85.70
49979;BME280;35869;50.990;6.962;2023-03-03T09:11:39;102233.56;;;2.06;85.31
49979;BME280;35869;50.990;6.962;2023-03-03T09:16:47;102237.09;;;2.13;85.15
49979;BME280;35869;50.990;6.962;2023-03-03T09:21:53;102237.22;;;2.22;84.82
49979;BME280;35869;50.990;6.962;2023-03-03T09:26:54;102239.69;;;2.16;84.61
49979;BME280;35869;50.990;6.962;2023-03-03T09:31:59;102243.31;;;2.29;84.61
49979;BME280;35869;50.990;6.962;2023-03-03T09:36:59;102252.75;;;2.33;84.39
49979;BME280;35869;50.990;6.962;2023-03-03T09:58:32;102274.53;;;2.61;84.14
49979;BME280;35869;50.990;6.962;2023-03-03T10:14:50;102269.84;;;2.96;82.40
49979;BME280;35869;50.990;6.962;2023-03-03T10:25:18;102264.06;;;3.12;82.47
49979;BME280;35869;50.990;6.962;2023-03-03T10:35:27;102265.03;;;3.24;82.35
49979;BME280;35869;50.990;6.962;2023-03-03T10:51:27;102261.97;;;3.63;82.65
49979;BME280;35869;50.990;6.962;2023-03-03T10:56:56;102260.34;;;3.71;81.93
49979;BME280;35869;50.990;6.962;2023-03-03T11:02:16;102263.91;;;3.87;80.75
49979;BME280;35869;50.990;6.962;2023-03-03T11:07:51;102275.03;;;3.83;80.47
49979;BME280;35869;50.990;6.962;2023-03-03T11:34:57;102263.41;;;4.38;81.13
49979;BME280;35869;50.990;6.962;2023-03-03T11:40:06;102261.75;;;4.51;80.60
49979;BME280;35869;50.990;6.962;2023-03-03T11:45:12;102262.72;;;4.67;79.51
49979;BME280;35869;50.990;6.962;2023-03-03T11:55:41;102248.16;;;4.73;81.09
49979;BME280;35869;50.990;6.962;2023-03-03T12:11:47;102231.09;;;5.03;78.17
49979;BME280;35869;50.990;6.962;2023-03-03T12:16:57;102227.69;;;5.10;77.17
49979;BME280;35869;50.990;6.962;2023-03-03T12:22:10;102221.66;;;5.13;78.40
49979;BME280;35869;50.990;6.962;2023-03-03T12:33:05;102209.69;;;5.28;78.70
49979;BME280;35869;50.990;6.962;2023-03-03T12:38:25;102204.50;;;5.21;79.92
49979;BME280;35869;50.990;6.962;2023-03-03T12:43:40;102203.66;;;5.35;79.46
49979;BME280;35869;50.990;6.962;2023-03-03T12:48:45;102208.81;;;5.42;79.65
49979;BME280;35869;50.990;6.962;2023-03-03T13:10:02;102211.41;;;5.55;77.93
49979;BME280;35869;50.990;6.962;2023-03-03T13:20:44;102208.84;;;5.54;77.76
49979;BME280;35869;50.990;6.962;2023-03-03T13:26:02;102201.97;;;5.51;78.38
49979;BME280;35869;50.990;6.962;2023-03-03T13:31:14;102202.81;;;5.62;77.41
49979;BME280;35869;50.990;6.962;2023-03-03T13:36:16;102202.81;;;5.49;78.15
49979;BME280;35869;50.990;6.962;2023-03-03T13:41:44;102198.50;;;5.57;77.57
49979;BME280;35869;50.990;6.962;2023-03-03T13:47:07;102195.09;;;5.64;77.15
49979;BME280;35869;50.990;6.962;2023-03-03T13:52:23;102188.19;;;5.66;77.03
49979;BME280;35869;50.990;6.962;2023-03-03T13:57:50;102178.75;;;5.60;76.26
49979;BME280;35869;50.990;6.962;2023-03-03T14:09:01;102183.91;;;5.59;77.04
49979;BME280;35869;50.990;6.962;2023-03-03T14:24:25;102172.72;;;5.49;76.32
49979;BME280;35869;50.990;6.962;2023-03-03T14:39:33;102164.97;;;5.61;75.52
49979;BME280;35869;50.990;6.962;2023-03-03T14:44:49;102156.38;;;5.56;75.53
49979;BME280;35869;50.990;6.962;2023-03-03T14:49:54;102159.00;;;5.58;76.05
49979;BME280;35869;50.990;6.962;2023-03-03T14:54:59;102149.50;;;5.45;76.80
49979;BME280;35869;50.990;6.962;2023-03-03T15:10:36;102146.09;;;5.53;75.81
49979;BME280;35869;50.990;6.962;2023-03-03T15:15:50;102144.38;;;5.48;75.27
49979;BME280;35869;50.990;6.962;2023-03-03T15:20:58;102140.06;;;5.41;76.83
49979;BME280;35869;50.990;6.962;2023-03-03T15:26:05;102133.22;;;5.40;76.13
49979;BME280;35869;50.990;6.962;2023-03-03T15:36:27;102134.91;;;5.41;76.61
49979;BME280;35869;50.990;6.962;2023-03-03T15:41:46;102137.50;;;5.36;76.41
49979;BME280;35869;50.990;6.962;2023-03-03T15:47:16;102135.78;;;5.29;76.77
49979;BME280;35869;50.990;6.962;2023-03-03T15:52:27;102121.16;;;5.32;76.35
49979;BME280;35869;50.990;6.962;2023-03-03T15:57:39;102127.19;;;5.25;75.56
49979;BME280;35869;50.990;6.962;2023-03-03T16:02:52;102124.63;;;5.22;76.35
49979;BME280;35869;50.990;6.962;2023-03-03T16:08:09;102128.03;;;5.18;75.34
49979;BME280;35869;50.990;6.962;2023-03-03T16:13:27;102133.16;;;5.09;76.72
49979;BME280;35869;50.990;6.962;2023-03-03T16:23:59;102134.88;;;5.04;76.28
49979;BME280;35869;50.990;6.962;2023-03-03T16:34:29;102140.03;;;4.89;75.78
49979;BME280;35869;50.990;6.962;2023-03-03T16:44:49;102140.84;;;4.71;77.62
49979;BME280;35869;50.990;6.962;2023-03-03T16:50:28;102162.25;;;4.54;78.86
49979;BME280;35869;50.990;6.962;2023-03-03T16:55:57;102173.38;;;4.47;77.48
49979;BME280;35869;50.990;6.962;2023-03-03T17:01:10;102169.03;;;4.39;77.56
49979;BME280;35869;50.990;6.962;2023-03-03T17:06:39;102171.63;;;4.42;79.37
49979;BME280;35869;50.990;6.962;2023-03-03T17:12:01;102175.03;;;4.38;78.95
49979;BME280;35869;50.990;6.962;2023-03-03T17:17:31;102174.19;;;4.39;78.27
49979;BME280;35869;50.990;6.962;2023-03-03T17:28:08;102181.81;;;4.22;79.34
49979;BME280;35869;50.990;6.962;2023-03-03T17:33:25;102183.50;;;4.14;79.91
49979;BME280;35869;50.990;6.962;2023-03-03T18:05:06;102213.13;;;3.60;81.30
49979;BME280;35869;50.990;6.962;2023-03-03T18:10:47;102225.81;;;3.41;80.25
49979;BME280;35869;50.990;6.962;2023-03-03T18:22:29;102220.53;;;3.28;81.55
49979;BME280;35869;50.990;6.962;2023-03-03T18:32:22;102219.59;;;3.18;82.23
49979;BME280;35869;50.990;6.962;2023-03-03T18:48:12;102232.06;;;2.86;82.53
49979;BME280;35869;50.990;6.962;2023-03-03T18:53:27;102246.53;;;2.79;82.34
49979;BME280;35869;50.990;6.962;2023-03-03T18:58:32;102242.25;;;2.77;82.51
49979;BME280;35869;50.990;6.962;2023-03-03T19:03:54;102246.41;;;2.68;83.44
49979;BME280;35869;50.990;6.962;2023-03-03T19:08:56;102254.06;;;2.64;83.03
49979;BME280;35869;50.990;6.962;2023-03-03T19:19:15;102252.19;;;2.52;83.92
49979;BME280;35869;50.990;6.962;2023-03-03T19:35:00;102255.31;;;2.31;84.64
49979;BME280;35869;50.990;6.962;2023-03-03T19:45:20;102261.16;;;2.23;83.95
49979;BME280;35869;50.990;6.962;2023-03-03T20:01:29;102261.66;;;1.99;84.87
49979;BME280;35869;50.990;6.962;2023-03-03T20:07:01;102265.91;;;1.98;84.59
49979;BME280;35869;50.990;6.962;2023-03-03T20:17:49;102265.91;;;1.97;84.05
49979;BME280;35869;50.990;6.962;2023-03-03T20:23:18;102259.91;;;1.95;83.85
49979;BME280;35869;50.990;6.962;2023-03-03T20:33:45;102271.94;;;2.00;82.78
49979;BME280;35869;50.990;6.962;2023-03-03T20:38:57;102274.63;;;2.09;82.68
49979;BME280;35869;50.990;6.962;2023-03-03T20:55:06;102276.41;;;2.13;82.57
49979;BME280;35869;50.990;6.962;2023-03-03T21:00:17;102273.00;;;2.14;81.92
49979;BME280;35869;50.990;6.962;2023-03-03T21:05:22;102283.44;;;2.24;81.32
49979;BME280;35869;50.990;6.962;2023-03-03T21:10:25;102281.66;;;2.20;81.40
49979;BME280;35869;50.990;6.962;2023-03-03T21:15:28;102290.97;;;2.14;81.24
49979;BME280;35869;50.990;6.962;2023-03-03T21:20:30;102283.38;;;2.21;82.74
49979;BME280;35869;50.990;6.962;2023-03-03T21:36:02;102284.31;;;2.27;81.60
49979;BME280;35869;50.990;6.962;2023-03-03T21:41:02;102288.69;;;2.33;81.19
49979;BME280;35869;50.990;6.962;2023-03-03T21:46:03;102278.31;;;2.27;82.06
49979;BME280;35869;50.990;6.962;2023-03-03T21:51:03;102278.41;;;2.33;81.89
49979;BME280;35869;50.990;6.962;2023-03-03T21:56:04;102269.84;;;2.32;82.19
49979;BME280;35869;50.990;6.962;2023-03-03T22:01:05;102261.28;;;2.29;83.74
49979;BME280;35869;50.990;6.962;2023-03-03T22:06:05;102268.97;;;2.30;83.34
49979;BME280;35869;50.990;6.962;2023-03-03T22:11:06;102263.16;;;2.40;81.20
49979;BME280;35869;50.990;6.962;2023-03-03T22:16:06;102269.97;;;2.40;82.61
49979;BME280;35869;50.990;6.962;2023-03-03T22:21:07;102259.75;;;2.43;82.12
49979;BME280;35869;50.990;6.962;2023-03-03T22:26:07;102255.47;;;2.40;81.64
49979;BME280;35869;50.990;6.962;2023-03-03T22:31:07;102252.00;;;2.40;82.47
49979;BME280;35869;50.990;6.962;2023-03-03T22:36:08;102264.81;;;2.37;83.77
49979;BME280;35869;50.990;6.962;2023-03-03T22:41:08;102252.03;;;2.42;83.30
49979;BME280;35869;50.990;6.962;2023-03-03T22:46:08;102260.53;;;2.39;84.50
49979;BME280;35869;50.990;6.962;2023-03-03T22:51:09;102256.31;;;2.43;82.76
49979;BME280;35869;50.990;6.962;2023-03-03T22:56:09;102264.09;;;2.47;83.21
49979;BME280;35869;50.990;6.962;2023-03-03T23:01:09;102270.94;;;2.48;82.85
49979;BME280;35869;50.990;6.962;2023-03-03T23:06:09;102270.09;;;2.49;82.74
49979;BME280;35869;50.990;6.962;2023-03-03T23:11:09;102279.53;;;2.52;83.10
49979;BME280;35869;50.990;6.962;2023-03-03T23:16:10;102278.75;;;2.57;83.17
49979;BME280;35869;50.990;6.962;2023-03-03T23:21:10;102279.50;;;2.49;83.31
49979;BME280;35869;50.990;6.962;2023-03-03T23:26:10;102270.19;;;2.55;81.46
49979;BME280;35869;50.990;6.962;2023-03-03T23:31:10;102269.31;;;2.55;81.69
49979;BME280;35869;50.990;6.962;2023-03-03T23:36:11;102270.25;;;2.60;83.57
49979;BME280;35869;50.990;6.962;2023-03-03T23:41:11;102259.97;;;2.58;82.45
49979;BME280;35869;50.990;6.962;2023-03-03T23:46:11;102266.84;;;2.62;81.60
49979;BME280;35869;50.990;6.962;2023-03-03T23:51:11;102266.91;;;2.65;83.20
49979;BME280;35869;50.990;6.962;2023-03-03T23:56:11;102261.72;;;2.62;82.38
